createdAt,value
2022-12-20T00:09:54.248Z,14.50
2022-12-20T00:29:53.981Z,16.20
2022-12-20T00:49:53.753Z,13.00
2022-12-20T01:09:53.436Z,11.80
2022-12-20T01:29:53.201Z,15.00
2022-12-20T01:49:52.907Z,11.90
2022-12-20T02:09:52.632Z,11.60
2022-12-20T02:29:52.375Z,11.30
2022-12-20T02:49:52.127Z,15.50
2022-12-20T03:09:51.823Z,14.70
2022-12-20T03:29:51.559Z,9.50
2022-12-20T03:49:51.323Z,8.10
2022-12-20T04:09:51.031Z,8.00
2022-12-20T04:29:50.757Z,10.80
2022-12-20T04:49:51.489Z,12.80
2022-12-20T05:09:50.226Z,9.20
2022-12-20T05:29:49.956Z,9.30
2022-12-20T05:49:49.697Z,11.60
2022-12-20T06:09:49.426Z,9.50
2022-12-20T06:29:49.164Z,12.70
2022-12-20T06:49:48.884Z,15.30
2022-12-20T07:09:48.631Z,18.50
2022-12-20T07:29:48.333Z,17.20
2022-12-20T07:49:48.080Z,22.10
2022-12-20T08:09:47.789Z,14.50
2022-12-20T08:29:47.548Z,15.70
2022-12-20T08:49:47.980Z,12.00
2022-12-20T09:09:46.984Z,11.10
2022-12-20T09:29:46.710Z,11.40
2022-12-20T09:49:46.430Z,11.90
2022-12-20T10:09:46.179Z,12.80
2022-12-20T10:29:46.899Z,9.00
2022-12-20T10:49:45.637Z,9.10
2022-12-20T11:09:46.367Z,7.80
2022-12-20T11:29:45.098Z,7.40
2022-12-20T11:49:44.832Z,8.70
2022-12-20T12:09:44.579Z,6.80
2022-12-20T12:29:44.324Z,8.20
2022-12-20T12:49:44.198Z,8.50
2022-12-20T13:09:43.814Z,5.50
2022-12-20T13:29:43.529Z,7.10
2022-12-20T13:49:43.269Z,8.40
2022-12-20T14:09:42.988Z,7.60
2022-12-20T14:29:42.755Z,9.20
2022-12-20T14:49:42.472Z,6.70
2022-12-20T15:09:42.206Z,10.90
2022-12-20T15:29:41.903Z,7.20
2022-12-20T15:49:47.853Z,11.20
2022-12-20T16:09:41.397Z,9.40
2022-12-20T16:29:41.118Z,10.40
2022-12-20T16:49:47.168Z,12.40
2022-12-20T17:10:01.598Z,18.70
2022-12-20T17:42:50.384Z,12.90
2022-12-20T18:02:50.249Z,13.40
2022-12-20T18:22:49.835Z,16.20
2022-12-20T18:42:49.551Z,23.60
2022-12-20T19:02:49.538Z,20.50
2022-12-20T19:22:49.056Z,22.30
2022-12-20T19:42:49.760Z,23.30
2022-12-20T20:02:48.594Z,22.80
2022-12-20T20:22:48.200Z,24.80
2022-12-20T20:42:47.970Z,23.50
2022-12-20T21:02:47.878Z,26.20
2022-12-20T21:22:47.395Z,19.90
2022-12-20T21:42:47.146Z,24.00
2022-12-20T22:02:46.919Z,24.30
2022-12-20T22:22:47.828Z,20.30
2022-12-20T22:42:46.338Z,16.80
2022-12-20T23:02:46.383Z,18.90
2022-12-20T23:22:45.844Z,15.20
2022-12-20T23:42:45.546Z,9.50
